Time;durP1;ratioP1;P1;durP2;ratioP2;P2;SDS_P1;SDS_P2;PMS_P1;PMS_P2;Temp;Humidity;BMP_temperature;BMP_pressure;BME280_temperature;BME280_humidity;BME280_pressure;Samples;Min_cycle;Max_cycle;Signal;HPM_P1;HPM_P2
2022/08/17 02:02:09;;;;;;;85.68;79.45;;;;;;;19.34;100.00;100409.97;5085806;22;20057;-84
2022/08/17 02:04:36;;;;;;;68.53;63.13;;;;;;;19.32;100.00;100399.47;5026710;28;20060;-86
2022/08/17 02:07:02;;;;;;;69.60;64.18;;;;;;;19.16;100.00;100404.06;5027171;28;20449;-84
2022/08/17 02:09:30;;;;;;;64.50;59.22;;;;;;;18.98;100.00;100410.00;5026115;28;20042;-87
2022/08/17 02:11:59;;;;;;;63.63;58.40;;;;;;;18.95;100.00;100405.94;5024144;28;20053;-86
2022/08/17 02:14:26;;;;;;;61.20;56.05;;;;;;;18.66;100.00;100408.31;5028535;28;20052;-86
2022/08/17 02:16:54;;;;;;;65.55;60.15;;;;;;;18.77;100.00;100409.16;5028431;28;20470;-87
2022/08/17 02:19:23;;;;;;;68.15;62.42;;;;;;;18.99;100.00;100412.41;5024249;28;20050;-87
2022/08/17 02:21:52;;;;;;;67.50;61.75;;;;;;;18.86;100.00;100412.94;5026975;28;20146;-83
2022/08/17 02:24:25;;;;;;;67.45;61.85;;;;;;;19.07;100.00;100412.97;5027829;28;20051;-84
2022/08/17 02:26:52;;;;;;;70.22;64.28;;;;;;;18.99;100.00;100409.72;5024137;28;20057;-84
2022/08/17 02:29:21;;;;;;;62.10;56.35;;;;;;;18.68;100.00;100416.94;5025917;28;20046;-83
2022/08/17 02:31:48;;;;;;;74.80;68.78;;;;;;;18.89;100.00;100419.69;5026909;28;20434;-83
2022/08/17 02:34:15;;;;;;;72.93;67.05;;;;;;;18.37;100.00;100420.63;5024691;28;20045;-83
2022/08/17 02:36:43;;;;;;;76.80;70.38;;;;;;;18.86;100.00;100418.31;5033123;28;20045;-84
2022/08/17 02:39:14;;;;;;;71.90;65.90;;;;;;;18.63;100.00;100426.88;5036252;28;20053;-89
2022/08/17 02:41:44;;;;;;;69.25;63.47;;;;;;;18.92;100.00;100419.16;5017770;28;20042;-88
2022/08/17 02:44:19;;;;;;;82.07;76.07;;;;;;;18.99;100.00;100420.47;5025849;28;20870;-86
2022/08/17 02:46:46;;;;;;;85.70;79.32;;;;;;;18.65;100.00;100427.41;5018504;28;20053;-83
2022/08/17 02:49:15;;;;;;;77.15;71.40;;;;;;;18.22;100.00;100434.84;5031696;28;20472;-86
2022/08/17 02:51:58;;;;;;;84.50;78.30;;;;;;;18.23;100.00;100431.88;5034094;28;20050;-86
2022/08/17 02:54:39;;;;;;;85.25;79.05;;;;;;;18.06;100.00;100431.25;5030988;28;20052;-85
2022/08/17 02:57:16;;;;;;;70.60;64.68;;;;;;;17.94;100.00;100433.34;5034386;28;20054;-86
2022/08/17 02:59:56;;;;;;;74.53;68.50;;;;;;;18.37;100.00;100436.78;5033177;28;20425;-83
2022/08/17 03:02:23;;;;;;;86.22;79.63;;;;;;;18.23;100.00;100437.25;5021937;28;20161;-83
2022/08/17 03:04:50;;;;;;;67.45;61.67;;;;;;;18.62;100.00;100434.13;5021123;28;20069;-83
2022/08/17 03:07:20;;;;;;;72.22;66.53;;;;;;;18.46;100.00;100433.28;5031236;28;20127;-87
2022/08/17 03:09:49;;;;;;;69.20;63.47;;;;;;;18.54;100.00;100442.72;5026715;28;20068;-83
2022/08/17 03:12:16;;;;;;;65.57;60.17;;;;;;;18.13;100.00;100436.41;5033462;28;20053;-82
2022/08/17 03:14:43;;;;;;;70.65;64.95;;;;;;;18.29;100.00;100436.19;5028003;28;20041;-84
2022/08/17 03:17:12;;;;;;;59.75;54.92;;;;;;;18.07;100.00;100424.84;5038234;28;20061;-83
2022/08/17 03:19:39;;;;;;;55.13;50.65;;;;;;;18.35;100.00;100437.03;5038443;28;20060;-88
2022/08/17 03:22:08;;;;;;;56.72;51.75;;;;;;;18.10;100.00;100424.31;5027211;28;20127;-82
2022/08/17 03:24:38;;;;;;;53.13;48.63;;;;;;;17.93;100.00;100424.50;5033244;28;20121;-83
2022/08/17 03:27:12;;;;;;;50.78;46.67;;;;;;;18.09;100.00;100438.78;5032221;28;20077;-83
2022/08/17 03:29:44;;;;;;;52.33;47.50;;;;;;;18.12;100.00;100430.22;5029789;28;20073;-86
2022/08/17 03:32:14;;;;;;;49.80;45.55;;;;;;;18.15;100.00;100439.63;5025617;28;20057;-86
2022/08/17 03:35:09;;;;;;;55.85;51.08;;;;;;;18.09;100.00;100446.84;5028800;28;20056;-87
2022/08/17 03:37:44;;;;;;;51.15;46.65;;;;;;;18.02;100.00;100440.91;5034311;28;20053;-86
2022/08/17 03:40:14;;;;;;;52.30;47.55;;;;;;;18.00;100.00;100445.75;5032676;28;20060;-87
2022/08/17 03:42:49;;;;;;;48.05;43.90;;;;;;;17.76;100.00;100451.53;5034496;28;20468;-86
2022/08/17 03:56:52;;;;;;;47.42;43.63;;;;;;;18.31;100.00;100460.13;5026065;28;20492;-83
2022/08/17 03:59:21;;;;;;;47.33;43.63;;;;;;;18.24;100.00;100456.88;5024897;28;20062;-87
2022/08/17 04:01:51;;;;;;;46.83;42.58;;;;;;;18.54;100.00;100462.34;5020661;28;20054;-86
2022/08/17 04:04:19;;;;;;;48.78;44.78;;;;;;;18.49;100.00;100461.53;5027288;28;20111;-81
2022/08/17 04:06:46;;;;;;;49.58;45.67;;;;;;;18.70;100.00;100473.97;5023510;28;20046;-81
2022/08/17 04:09:22;;;;;;;44.75;41.05;;;;;;;18.90;100.00;100478.59;5026825;28;20128;-85
2022/08/17 04:11:52;;;;;;;46.55;43.15;;;;;;;18.98;100.00;100474.59;5014304;28;20518;-82
2022/08/17 04:14:24;;;;;;;47.67;43.47;;;;;;;19.14;100.00;100475.41;5018385;28;20120;-86
2022/08/17 04:16:51;;;;;;;49.95;45.92;;;;;;;19.36;100.00;100484.00;5033599;28;20460;-83
2022/08/17 04:19:23;;;;;;;50.88;46.78;;;;;;;19.26;100.00;100477.81;5030071;28;20048;-83
2022/08/17 04:21:50;;;;;;;48.05;44.22;;;;;;;19.38;100.00;100476.47;5029146;28;20482;-84
2022/08/17 04:24:17;;;;;;;53.33;48.70;;;;;;;19.71;100.00;100471.63;5029056;28;20485;-83
2022/08/17 04:26:45;;;;;;;52.55;47.95;;;;;;;19.80;100.00;100478.06;5021662;28;20068;-82
2022/08/17 04:29:15;;;;;;;46.45;42.45;;;;;;;19.95;100.00;100479.13;5020295;28;20056;-82
2022/08/17 04:31:42;;;;;;;47.05;42.78;;;;;;;19.86;100.00;100476.97;5028668;28;20055;-83
2022/08/17 04:34:10;;;;;;;46.50;42.65;;;;;;;19.92;100.00;100477.78;5031854;28;20042;-83
2022/08/17 04:36:40;;;;;;;44.83;40.95;;;;;;;19.43;100.00;100491.84;5024426;28;20050;-84
2022/08/17 04:39:07;;;;;;;44.22;40.50;;;;;;;19.52;100.00;100490.22;5019197;28;20037;-83
2022/08/17 04:44:21;;;;;;;44.00;40.47;;;;;;;20.08;100.00;100492.00;5023341;28;20045;-83
2022/08/17 04:46:57;;;;;;;40.28;37.03;;;;;;;20.22;100.00;100495.72;5029608;28;20494;-85
2022/08/17 04:49:26;;;;;;;39.67;36.15;;;;;;;20.27;100.00;100489.50;5022537;28;20037;-82
2022/08/17 04:52:01;;;;;;;38.72;35.65;;;;;;;20.47;100.00;100475.13;5029932;28;20061;-85
2022/08/17 04:54:32;;;;;;;37.92;34.58;;;;;;;20.73;100.00;100489.31;5028934;28;20045;-86
2022/08/17 04:57:01;;;;;;;38.60;35.00;;;;;;;21.08;100.00;100484.75;5034049;28;20500;-86
2022/08/17 04:59:30;;;;;;;36.38;33.35;;;;;;;20.90;100.00;100481.63;5029920;28;20486;-82
2022/08/17 05:01:56;;;;;;;37.97;34.80;;;;;;;21.22;100.00;100489.25;5023173;28;20474;-82
2022/08/17 05:04:25;;;;;;;36.45;33.50;;;;;;;21.57;100.00;100475.72;5033107;28;20042;-82
2022/08/17 05:06:54;;;;;;;36.83;33.70;;;;;;;21.67;100.00;100479.16;5029813;28;20136;-83
2022/08/17 05:09:41;;;;;;;35.88;33.17;;;;;;;21.84;100.00;100473.28;5029391;28;20140;-87
2022/08/17 05:12:08;;;;;;;34.50;31.90;;;;;;;21.90;100.00;100476.75;5019138;28;20049;-86
2022/08/17 05:14:40;;;;;;;33.78;31.08;;;;;;;22.03;100.00;100476.06;5033699;28;20049;-85
2022/08/17 05:17:13;;;;;;;33.20;30.70;;;;;;;21.99;100.00;100466.91;5026137;28;20051;-88
2022/08/17 05:19:49;;;;;;;33.60;30.67;;;;;;;22.09;100.00;100483.03;5030195;28;20608;-88
2022/08/17 05:22:17;;;;;;;33.47;30.67;;;;;;;22.28;100.00;100483.09;5024573;28;20410;-82
2022/08/17 05:24:51;;;;;;;33.63;30.90;;;;;;;22.33;100.00;100485.75;5036673;28;20056;-85
2022/08/17 05:27:21;;;;;;;33.70;30.60;;;;;;;22.49;100.00;100491.75;5024255;28;20045;-82
2022/08/17 05:29:49;;;;;;;32.78;30.08;;;;;;;22.74;100.00;100493.31;5029944;28;20053;-83
2022/08/17 05:32:21;;;;;;;32.00;29.40;;;;;;;23.26;100.00;100488.75;5032928;28;20049;-83
2022/08/17 05:34:58;;;;;;;31.20;29.00;;;;;;;23.90;100.00;100478.16;5031238;28;20149;-87
2022/08/17 05:37:25;;;;;;;30.63;28.30;;;;;;;24.12;100.00;100485.59;5021494;28;20050;-88
2022/08/17 05:39:54;;;;;;;31.85;29.35;;;;;;;24.10;100.00;100487.00;5032554;28;20072;-84
2022/08/17 05:42:21;;;;;;;29.20;27.30;;;;;;;24.21;100.00;100491.94;5025365;28;20145;-82
2022/08/17 05:44:57;;;;;;;30.65;28.65;;;;;;;24.36;100.00;100479.16;5024233;28;20468;-88
2022/08/17 05:47:26;;;;;;;30.25;28.27;;;;;;;24.84;100.00;100481.34;5027203;28;20038;-82
2022/08/17 05:50:02;;;;;;;35.13;33.03;;;;;;;24.67;100.00;100480.09;5027567;28;20057;-83
2022/08/17 05:52:40;;;;;;;33.50;31.55;;;;;;;24.95;100.00;100480.00;5031949;28;20136;-82
2022/08/17 05:55:23;;;;;;;35.58;33.25;;;;;;;24.88;100.00;100474.22;5027205;28;20129;-83
2022/08/17 05:58:13;;;;;;;37.50;35.20;;;;;;;25.17;100.00;100473.81;5028410;28;20562;-83
2022/08/17 06:00:54;;;;;;;41.30;38.80;;;;;;;25.34;100.00;100462.25;5023210;28;20422;-87
2022/08/17 06:03:38;;;;;;;39.92;37.40;;;;;;;25.23;100.00;100475.28;5020766;28;20140;-83
2022/08/17 06:06:23;;;;;;;36.83;34.53;;;;;;;24.97;100.00;100475.09;5017236;28;20118;-83
2022/08/17 06:08:57;;;;;;;36.67;34.38;;;;;;;25.26;100.00;100482.81;5026107;28;20135;-87
2022/08/17 06:11:37;;;;;;;35.88;33.67;;;;;;;25.33;100.00;100472.31;5031870;28;20470;-86
2022/08/17 06:14:27;;;;;;;34.85;32.55;;;;;;;25.15;100.00;100472.53;5032153;28;20050;-83
2022/08/17 06:17:03;;;;;;;37.08;34.75;;;;;;;25.48;100.00;100473.84;5028702;28;20059;-85
2022/08/17 06:19:40;;;;;;;36.47;34.45;;;;;;;25.41;100.00;100469.97;5036082;28;20068;-87
2022/08/17 06:22:10;;;;;;;37.00;34.85;;;;;;;25.65;100.00;100485.91;5024441;28;20478;-83
2022/08/17 06:24:42;;;;;;;38.13;35.50;;;;;;;25.53;100.00;100476.41;5031600;28;20076;-82
2022/08/17 06:27:18;;;;;;;36.38;33.95;;;;;;;25.63;100.00;100488.97;5019834;28;20054;-83
2022/08/17 06:29:56;;;;;;;35.17;32.97;;;;;;;25.90;100.00;100471.69;5030362;28;20069;-88
2022/08/17 06:32:25;;;;;;;33.40;31.20;;;;;;;25.86;100.00;100484.28;5033199;28;20053;-83
2022/08/17 06:34:59;;;;;;;37.50;34.95;;;;;;;25.99;100.00;100483.38;5019551;28;20053;-83
2022/08/17 06:37:47;;;;;;;33.42;30.85;;;;;;;26.12;100.00;100476.22;5021843;28;20045;-87
2022/08/17 06:40:37;;;;;;;32.97;30.77;;;;;;;25.90;100.00;100470.84;5026534;28;20049;-87
2022/08/17 06:43:23;;;;;;;36.13;33.80;;;;;;;25.94;100.00;100469.91;5029477;28;20053;-86
2022/08/17 06:46:01;;;;;;;37.88;35.40;;;;;;;25.93;100.00;100473.75;5028875;28;20132;-87
2022/08/17 06:48:39;;;;;;;34.35;32.15;;;;;;;25.91;100.00;100465.09;5031262;28;20060;-84
2022/08/17 06:51:14;;;;;;;35.80;33.80;;;;;;;26.37;100.00;100479.31;5032944;28;20052;-81
2022/08/17 06:53:53;;;;;;;34.88;32.58;;;;;;;26.50;100.00;100468.28;5033813;28;20557;-86
2022/08/17 06:56:33;;;;;;;34.13;31.95;;;;;;;26.57;100.00;100461.59;5034875;28;20397;-87
2022/08/17 06:59:01;;;;;;;31.42;29.15;;;;;;;26.85;100.00;100471.03;5025359;28;20057;-83
2022/08/17 07:01:33;;;;;;;32.88;30.48;;;;;;;26.70;100.00;100471.53;5031143;28;20085;-84
2022/08/17 07:04:10;;;;;;;31.58;29.35;;;;;;;26.46;100.00;100471.97;5021425;28;20053;-85
2022/08/17 07:06:41;;;;;;;32.97;30.55;;;;;;;26.76;100.00;100472.16;5031423;28;20560;-84
2022/08/17 07:09:16;;;;;;;32.38;30.08;;;;;;;26.89;100.00;100479.38;5034748;28;20045;-87
2022/08/17 07:11:52;;;;;;;32.00;29.77;;;;;;;27.01;100.00;100478.72;5031508;28;20056;-84
2022/08/17 07:14:35;;;;;;;31.08;29.08;;;;;;;26.98;100.00;100480.16;5021933;28;20041;-83
2022/08/17 07:17:17;;;;;;;29.92;28.00;;;;;;;27.05;100.00;100488.66;5031763;28;20057;-82
2022/08/17 07:19:49;;;;;;;30.80;28.65;;;;;;;26.81;100.00;100483.72;5032593;28;20045;-80
2022/08/17 07:22:23;;;;;;;32.63;30.13;;;;;;;27.02;100.00;100475.69;5033662;28;20053;-81
2022/08/17 07:24:56;;;;;;;32.22;30.02;;;;;;;26.90;100.00;100483.69;5035361;28;20053;-82
2022/08/17 07:27:27;;;;;;;33.05;30.92;;;;;;;27.26;100.00;100479.84;5033486;28;20095;-83
2022/08/17 07:30:01;;;;;;;34.40;31.77;;;;;;;27.28;100.00;100492.03;5030263;28;20122;-83
2022/08/17 07:32:31;;;;;;;35.03;32.33;;;;;;;27.42;100.00;100482.88;5021444;28;20129;-83
2022/08/17 07:35:09;;;;;;;32.75;30.50;;;;;;;27.35;100.00;100486.06;5033630;28;20060;-80
2022/08/17 07:37:39;;;;;;;35.40;32.42;;;;;;;27.51;100.00;100495.34;5029466;28;20500;-82
2022/08/17 07:40:26;;;;;;;36.25;33.55;;;;;;;27.89;100.00;100489.13;5024076;28;20054;-84
2022/08/17 07:43:19;;;;;;;44.00;41.30;;;;;;;27.93;100.00;100484.63;5020252;28;20367;-81
2022/08/17 07:48:50;;;;;;;;;;;;;;;27.91;100.00;100480.63;5021711;28;20185;-81
2022/08/17 07:51:26;;;;;;;36.60;34.00;;;;;;;27.96;100.00;100477.69;5019845;28;20286;-79
2022/08/17 07:53:57;;;;;;;33.67;31.20;;;;;;;28.22;100.00;100459.25;5031449;28;20056;-84
2022/08/17 07:56:43;;;;;;;34.10;31.90;;;;;;;28.46;100.00;100472.28;5015967;28;20050;-80
2022/08/17 07:59:16;;;;;;;33.88;31.77;;;;;;;28.34;100.00;100474.13;5022279;28;20049;-86
2022/08/17 08:01:46;;;;;;;35.92;33.53;;;;;;;28.00;100.00;100474.00;5024645;28;20042;-81
2022/08/17 08:04:26;;;;;;;37.55;35.00;;;;;;;28.35;98.62;100465.59;5023648;28;20385;-82
2022/08/17 08:07:04;;;;;;;32.92;30.92;;;;;;;28.50;100.00;100470.50;5023673;28;20049;-81
2022/08/17 08:09:38;;;;;;;32.55;30.27;;;;;;;28.39;100.00;100468.47;5021245;28;20102;-83
2022/08/17 08:12:28;;;;;;;36.25;33.92;;;;;;;28.40;100.00;100472.78;5021663;28;20077;-84
2022/08/17 08:15:00;;;;;;;40.50;37.92;;;;;;;28.29;100.00;100469.63;5028453;28;20061;-81
2022/08/17 08:17:34;;;;;;;38.03;35.45;;;;;;;28.32;93.74;100468.97;5023568;28;20045;-81
2022/08/17 08:20:04;;;;;;;35.67;33.08;;;;;;;28.81;91.51;100457.56;5031017;28;20059;-80
2022/08/17 08:22:43;;;;;;;34.33;31.88;;;;;;;28.97;95.62;100459.34;5031593;28;20550;-81
2022/08/17 08:25:25;;;;;;;38.47;36.20;;;;;;;29.10;100.00;100459.41;5020467;28;20049;-80
2022/08/17 08:28:04;;;;;;;38.60;36.25;;;;;;;29.28;97.39;100457.28;5017953;28;20096;-82
2022/08/17 08:30:35;;;;;;;39.65;37.42;;;;;;;29.26;95.76;100451.34;5026391;28;20123;-82
2022/08/17 08:33:16;;;;;;;39.83;37.15;;;;;;;29.36;92.94;100450.94;5019840;28;20053;-85
2022/08/17 08:36:00;;;;;;;37.28;35.08;;;;;;;29.37;95.32;100458.78;5024112;28;20056;-83
2022/08/17 08:38:44;;;;;;;44.58;42.17;;;;;;;29.18;98.35;100458.53;5026649;28;20045;-83
2022/08/17 08:41:28;;;;;;;44.35;41.75;;;;;;;29.21;98.61;100452.38;5027420;28;20481;-82
2022/08/17 08:44:05;;;;;;;35.03;32.97;;;;;;;29.73;88.38;100456.47;5015023;28;20052;-80
2022/08/17 08:46:44;;;;;;;37.53;35.30;;;;;;;29.78;91.29;100459.00;5022598;28;20056;-80
2022/08/17 08:49:31;;;;;;;36.70;34.10;;;;;;;29.49;96.21;100454.47;5020871;28;20049;-85
2022/08/17 08:52:00;;;;;;;37.55;35.33;;;;;;;29.76;95.08;100450.31;5024278;28;20049;-83
2022/08/17 08:54:38;;;;;;;47.70;44.90;;;;;;;29.60;100.00;100453.72;5031215;28;20452;-80
2022/08/17 08:57:17;;;;;;;40.63;38.20;;;;;;;29.60;92.97;100450.19;5032486;28;20049;-81
2022/08/17 08:59:58;;;;;;;41.55;38.97;;;;;;;30.27;92.64;100451.56;5028941;28;20046;-81
2022/08/17 09:02:45;;;;;;;55.10;51.80;;;;;;;30.06;83.48;100457.16;5029972;28;20538;-81
2022/08/17 09:05:21;;;;;;;43.15;40.42;;;;;;;30.29;84.20;100456.72;5027248;28;20073;-81
2022/08/17 09:07:54;;;;;;;47.72;45.08;;;;;;;30.06;90.53;100451.66;5032938;28;20111;-84
2022/08/17 09:10:26;;;;;;;43.50;40.45;;;;;;;30.45;77.86;100445.81;5029145;28;20038;-82
2022/08/17 09:13:05;;;;;;;43.85;41.45;;;;;;;30.44;82.15;100447.78;5028214;28;20125;-81
2022/08/17 09:15:38;;;;;;;36.45;34.15;;;;;;;31.03;80.45;100441.59;5025822;28;20068;-81
2022/08/17 09:18:16;;;;;;;38.00;35.65;;;;;;;31.31;71.46;100448.19;5032349;28;20068;-82
2022/08/17 09:20:48;;;;;;;36.65;34.08;;;;;;;30.64;75.47;100450.66;5025707;28;20066;-82
2022/08/17 09:23:26;;;;;;;;;;;;;;;30.23;82.44;100452.59;5033975;28;20532;-85
2022/08/17 09:26:02;;;;;;;35.30;33.00;;;;;;;30.56;77.53;100450.47;5028402;28;19925;-81
2022/08/17 09:28:35;;;;;;;41.30;38.53;;;;;;;30.52;79.52;100438.59;5030096;28;20466;-82
2022/08/17 09:31:08;;;;;;;40.50;37.70;;;;;;;31.00;67.04;100436.03;5033626;28;20053;-81
2022/08/17 09:33:41;;;;;;;41.53;38.70;;;;;;;30.70;78.30;100436.38;5030197;28;20045;-82
2022/08/17 09:36:15;;;;;;;42.20;39.28;;;;;;;30.60;72.13;100439.59;5028138;28;20042;-82
2022/08/17 09:38:52;;;;;;;35.72;33.13;;;;;;;31.29;74.82;100445.00;5027926;28;20687;-81
2022/08/17 09:41:28;;;;;;;39.15;36.63;;;;;;;31.09;66.79;100441.34;5029505;28;20053;-84
2022/08/17 09:44:00;;;;;;;42.25;39.33;;;;;;;31.98;62.41;100442.81;5029897;28;20045;-82
2022/08/17 09:46:33;;;;;;;41.70;39.10;;;;;;;31.72;67.93;100441.41;5024357;28;20056;-83
2022/08/17 09:49:08;;;;;;;44.15;41.38;;;;;;;31.03;72.12;100438.06;5025906;28;20119;-81
2022/08/17 09:51:38;;;;;;;40.25;37.90;;;;;;;30.95;73.19;100436.28;5023626;28;20368;-81
2022/08/17 09:54:17;;;;;;;37.80;35.30;;;;;;;31.93;59.32;100433.72;5027336;28;20080;-84
2022/08/17 09:56:57;;;;;;;36.50;34.10;;;;;;;30.92;74.90;100426.00;5021280;28;20053;-81
2022/08/17 09:59:35;;;;;;;36.90;33.50;;;;;;;30.95;70.48;100439.81;5027838;28;20041;-81
2022/08/17 10:02:26;;;;;;;37.80;35.40;;;;;;;30.58;75.33;100428.97;5026760;28;20077;-82
2022/08/17 10:05:01;;;;;;;36.15;33.78;;;;;;;31.39;64.92;100433.56;5026108;28;20054;-80
2022/08/17 10:07:33;;;;;;;38.05;35.60;;;;;;;32.31;64.39;100431.38;5031450;28;20064;-82
2022/08/17 10:10:07;;;;;;;;;;;;;;;31.64;64.07;100434.94;5032512;28;20060;-83
2022/08/17 10:12:42;;;;;;;41.50;38.90;;;;;;;31.83;60.32;100430.66;5021001;28;19926;-81
2022/08/17 10:15:26;;;;;;;39.92;37.47;;;;;;;32.05;56.37;100419.06;5026566;28;20057;-80
2022/08/17 10:18:25;;;;;;;45.13;42.20;;;;;;;31.64;66.70;100420.44;5028629;28;20403;-83
2022/08/17 10:26:31;;;;;;;38.63;36.13;;;;;;;31.45;62.78;100410.97;5024293;28;20200;-79
2022/08/17 10:29:05;;;;;;;47.13;44.25;;;;;;;32.26;54.97;100399.50;5018991;28;20053;-81
2022/08/17 10:31:40;;;;;;;39.13;36.55;;;;;;;32.37;53.34;100403.25;5022498;28;20107;-82
2022/08/17 10:34:36;;;;;;;42.78;39.83;;;;;;;31.56;65.40;100405.75;5020818;28;20414;-80
2022/08/17 10:37:19;;;;;;;41.95;38.85;;;;;;;32.35;59.72;100393.81;5031123;28;20547;-79
2022/08/17 10:39:52;;;;;;;42.78;39.88;;;;;;;32.49;52.86;100391.34;5028500;28;20057;-82
2022/08/17 10:42:24;;;;;;;41.45;38.65;;;;;;;33.14;50.72;100389.84;5024951;28;20049;-82
2022/08/17 10:44:59;;;;;;;44.85;41.75;;;;;;;33.30;49.35;100390.50;5026712;28;20064;-79
2022/08/17 10:47:58;;;;;;;45.35;42.30;;;;;;;33.42;49.72;100384.00;5034144;28;20126;-82
2022/08/17 10:50:46;;;;;;;48.40;45.10;;;;;;;32.05;55.33;100386.13;5020566;28;20085;-80
2022/08/17 10:53:54;;;;;;;44.47;41.65;;;;;;;32.52;51.73;100379.63;5033632;28;20103;-81
2022/08/17 10:56:37;;;;;;;45.85;43.03;;;;;;;31.57;61.63;100390.09;5030372;28;20061;-81
2022/08/17 10:59:04;;;;;;;41.60;38.58;;;;;;;32.46;51.25;100381.09;5033126;28;20064;-81
2022/08/17 11:02:07;;;;;;;40.78;38.13;;;;;;;33.64;46.28;100371.41;5021559;28;20049;-82
2022/08/17 11:04:56;;;;;;;34.83;32.42;;;;;;;32.48;56.29;100373.28;5017816;28;20061;-82
2022/08/17 11:07:39;;;;;;;37.13;34.42;;;;;;;32.26;52.21;100369.28;5026264;28;20053;-81
2022/08/17 11:10:35;;;;;;;40.53;37.63;;;;;;;32.94;50.52;100354.09;5021911;28;20048;-84
2022/08/17 11:13:16;;;;;;;33.17;30.42;;;;;;;31.91;55.21;100377.56;5034769;28;20517;-81
2022/08/17 11:15:56;;;;;;;31.75;29.45;;;;;;;32.65;44.41;100365.75;5031943;28;20087;-82
2022/08/17 11:18:38;;;;;;;29.13;26.83;;;;;;;33.62;43.51;100360.78;5031724;28;20061;-79
2022/08/17 11:21:55;;;;;;;33.50;31.00;;;;;;;34.10;44.66;100355.56;5033971;28;20051;-80
2022/08/17 11:24:34;;;;;;;34.58;31.90;;;;;;;33.45;46.66;100353.00;5035984;28;20124;-82
2022/08/17 11:27:07;;;;;;;33.83;31.50;;;;;;;34.85;40.97;100348.13;5037034;28;20115;-80
2022/08/17 11:29:49;;;;;;;35.30;32.65;;;;;;;34.03;47.11;100355.44;5032838;28;20136;-81
2022/08/17 11:32:36;;;;;;;32.92;30.52;;;;;;;32.67;47.62;100355.19;5026383;28;20123;-80
2022/08/17 11:35:34;;;;;;;37.67;34.88;;;;;;;33.11;51.46;100347.34;5024519;28;20077;-82
2022/08/17 11:38:18;;;;;;;37.47;34.67;;;;;;;33.72;43.86;100348.31;5024252;28;20046;-81
2022/08/17 11:41:11;;;;;;;32.75;30.13;;;;;;;34.56;40.11;100341.53;5020763;28;20060;-80
2022/08/17 11:44:01;;;;;;;35.67;33.08;;;;;;;35.04;41.89;100330.59;5026560;28;20042;-81
2022/08/17 11:52:51;;;;;;;37.25;34.65;;;;;;;32.88;52.09;100330.81;5026351;28;20049;-84
2022/08/17 11:55:56;;;;;;;38.08;35.33;;;;;;;33.10;50.98;100325.69;5025448;28;20065;-82
2022/08/17 11:58:40;;;;;;;43.15;39.97;;;;;;;33.30;51.75;100314.25;5032336;28;20046;-83
2022/08/17 12:01:09;;;;;;;37.05;34.42;;;;;;;32.49;53.32;100317.16;5031484;28;20096;-82
2022/08/17 12:03:56;;;;;;;41.28;38.38;;;;;;;32.56;52.91;100311.81;5016101;28;20403;-84
2022/08/17 12:06:33;;;;;;;35.28;32.53;;;;;;;33.46;48.25;100307.78;5025728;28;20053;-82
2022/08/17 12:09:10;;;;;;;36.65;33.92;;;;;;;33.84;45.42;100309.53;5015355;28;20050;-83
2022/08/17 12:11:42;;;;;;;43.38;39.60;;;;;;;33.49;46.66;100307.03;5025500;28;20064;-84
2022/08/17 12:14:15;;;;;;;40.17;37.33;;;;;;;34.18;43.87;100309.59;5030956;28;20096;-81
2022/08/17 12:16:43;;;;;;;37.22;34.13;;;;;;;33.15;49.98;100306.16;5023950;28;20046;-84
2022/08/17 12:19:20;;;;;;;41.40;38.60;;;;;;;34.85;43.48;100297.69;5028168;28;20099;-81
2022/08/17 12:21:52;;;;;;;39.42;36.47;;;;;;;33.97;46.19;100313.63;5028818;28;20042;-83
2022/08/17 12:24:37;;;;;;;35.45;32.83;;;;;;;33.19;47.41;100302.28;5035868;28;20140;-81
2022/08/17 12:27:07;;;;;;;39.40;36.30;;;;;;;33.54;45.27;100287.50;5027580;28;20061;-83
2022/08/17 12:29:36;;;;;;;35.38;32.60;;;;;;;34.16;46.37;100293.44;5027032;28;20525;-82
2022/08/17 12:32:16;;;;;;;34.08;31.45;;;;;;;33.46;47.70;100288.53;5030322;28;20053;-83
2022/08/17 12:34:45;;;;;;;33.35;30.77;;;;;;;31.64;59.12;100292.22;5030496;28;20077;-83
2022/08/17 12:37:17;;;;;;;34.55;32.15;;;;;;;33.17;43.71;100287.31;5027160;28;20120;-82
2022/08/17 12:39:53;;;;;;;32.53;30.23;;;;;;;33.39;38.97;100286.47;5030203;28;20454;-80
2022/08/17 12:42:28;;;;;;;34.15;31.40;;;;;;;32.84;45.17;100286.75;5030865;28;20045;-80
2022/08/17 12:44:58;;;;;;;36.10;33.17;;;;;;;33.15;46.53;100273.91;5025141;28;20089;-83
2022/08/17 12:47:28;;;;;;;34.78;32.28;;;;;;;33.48;44.60;100277.94;5021844;28;20049;-84
2022/08/17 12:50:07;;;;;;;35.85;33.15;;;;;;;33.18;40.72;100284.19;5023469;28;20053;-82
2022/08/17 12:52:38;;;;;;;34.40;31.77;;;;;;;31.73;59.07;100274.78;5026956;28;20465;-81
2022/08/17 12:55:12;;;;;;;34.70;32.20;;;;;;;31.39;49.87;100264.25;5029308;28;20124;-80
2022/08/17 12:57:43;;;;;;;36.83;33.72;;;;;;;32.79;48.16;100275.28;5024770;28;20096;-81
2022/08/17 13:00:22;;;;;;;36.17;33.58;;;;;;;32.57;53.13;100277.66;5025193;28;20470;-83
2022/08/17 13:02:52;;;;;;;35.67;33.17;;;;;;;32.28;56.57;100265.31;5027484;28;20053;-81
2022/08/17 13:05:26;;;;;;;34.85;32.70;;;;;;;33.16;47.97;100271.97;5016705;28;20499;-81
2022/08/17 13:07:55;;;;;;;36.38;33.80;;;;;;;32.28;52.15;100275.50;5035311;28;20053;-80
2022/08/17 13:10:28;;;;;;;35.65;33.17;;;;;;;33.73;39.94;100268.06;5025714;28;20060;-81
2022/08/17 13:13:02;;;;;;;31.52;29.23;;;;;;;33.08;42.28;100270.28;5032660;28;20492;-82
2022/08/17 13:15:32;;;;;;;35.60;33.08;;;;;;;33.33;45.60;100265.16;5031892;28;20045;-83
2022/08/17 13:18:06;;;;;;;33.10;30.25;;;;;;;33.15;42.60;100260.16;5029900;28;20076;-83
2022/08/17 13:20:34;;;;;;;34.00;31.40;;;;;;;32.85;46.24;100263.59;5025204;28;20049;-83
2022/08/17 13:23:06;;;;;;;34.50;31.58;;;;;;;32.55;47.46;100257.19;5026652;28;20426;-81
2022/08/17 13:25:37;;;;;;;35.92;33.20;;;;;;;33.41;45.82;100264.88;5029052;28;20045;-80
2022/08/17 13:28:05;;;;;;;32.40;29.80;;;;;;;33.17;45.31;100271.59;5030395;28;20045;-80
2022/08/17 13:30:32;;;;;;;34.70;32.00;;;;;;;32.53;44.98;100270.50;5022973;28;20501;-79
2022/08/17 13:33:02;;;;;;;34.15;31.55;;;;;;;33.79;39.56;100262.25;5027255;28;20037;-80
2022/08/17 13:35:43;;;;;;;35.92;33.42;;;;;;;33.81;43.66;100266.22;5025445;28;20129;-79
2022/08/17 13:38:13;;;;;;;32.55;30.15;;;;;;;33.38;44.19;100267.59;5027277;28;20107;-80
2022/08/17 13:40:49;;;;;;;32.75;30.33;;;;;;;33.97;42.16;100266.00;5029306;28;20053;-81
2022/08/17 13:43:43;;;;;;;30.58;28.17;;;;;;;33.64;44.68;100261.28;5023366;28;20057;-82
2022/08/17 13:46:16;;;;;;;32.70;30.40;;;;;;;33.29;41.64;100260.38;5030467;28;20115;-80
2022/08/17 13:48:43;;;;;;;36.67;34.28;;;;;;;32.90;41.94;100256.22;5034274;28;20049;-80
2022/08/17 13:51:25;;;;;;;30.48;28.17;;;;;;;33.72;38.18;100255.50;5035576;28;20056;-81
2022/08/17 13:53:59;;;;;;;31.15;28.75;;;;;;;34.11;38.53;100255.19;5030164;28;20053;-83
2022/08/17 13:56:36;;;;;;;29.15;26.95;;;;;;;33.65;46.41;100255.41;5029220;28;20042;-82
2022/08/17 13:59:06;;;;;;;30.13;27.92;;;;;;;33.09;41.61;100258.91;5026891;28;20049;-83
2022/08/17 14:01:35;;;;;;;32.70;30.40;;;;;;;32.56;48.87;100258.81;5032542;28;20050;-80
2022/08/17 14:04:06;;;;;;;34.75;32.35;;;;;;;33.21;41.52;100261.44;5032398;28;20053;-82
2022/08/17 14:06:45;;;;;;;34.58;32.35;;;;;;;32.40;42.97;100256.09;5034127;28;20045;-80
2022/08/17 14:09:12;;;;;;;37.25;34.55;;;;;;;31.80;49.87;100256.50;5027986;28;20046;-80
2022/08/17 14:11:40;;;;;;;37.95;35.25;;;;;;;32.58;40.53;100256.47;5031933;28;20045;-82
2022/08/17 14:14:07;;;;;;;38.50;35.85;;;;;;;32.70;39.49;100255.50;5031079;28;20046;-80